sensor_id;sensor_type;location;lat;lon;timestamp;temperature;humidity
13591;DHT22;6866;50.778;7.206;2023-03-01T00:01:09;0.60;98.60
13591;DHT22;6866;50.778;7.206;2023-03-01T00:03:34;0.80;98.90
13591;DHT22;6866;50.778;7.206;2023-03-01T00:06:00;0.90;98.80
13591;DHT22;6866;50.778;7.206;2023-03-01T00:08:27;0.60;98.60
13591;DHT22;6866;50.778;7.206;2023-03-01T00:11:05;0.90;98.80
13591;DHT22;6866;50.778;7.206;2023-03-01T00:13:31;0.60;98.80
13591;DHT22;6866;50.778;7.206;2023-03-01T00:15:56;1.00;98.60
13591;DHT22;6866;50.778;7.206;2023-03-01T00:18:22;0.80;98.40
13591;DHT22;6866;50.778;7.206;2023-03-01T00:20:55;0.70;97.90
13591;DHT22;6866;50.778;7.206;2023-03-01T00:23:21;0.50;98.20
13591;DHT22;6866;50.778;7.206;2023-03-01T00:25:47;0.60;98.70
13591;DHT22;6866;50.778;7.206;2023-03-01T00:28:13;0.60;98.80
13591;DHT22;6866;50.778;7.206;2023-03-01T00:30:39;0.50;99.40
13591;DHT22;6866;50.778;7.206;2023-03-01T00:33:04;0.50;99.30
13591;DHT22;6866;50.778;7.206;2023-03-01T00:35:32;0.50;99.20
13591;DHT22;6866;50.778;7.206;2023-03-01T00:37:57;0.50;99.50
13591;DHT22;6866;50.778;7.206;2023-03-01T00:40:24;0.40;99.70
13591;DHT22;6866;50.778;7.206;2023-03-01T00:42:50;0.40;99.90
13591;DHT22;6866;50.778;7.206;2023-03-01T00:45:16;0.40;99.90
13591;DHT22;6866;50.778;7.206;2023-03-01T00:47:41;0.40;99.90
13591;DHT22;6866;50.778;7.206;2023-03-01T00:50:07;0.30;99.90
13591;DHT22;6866;50.778;7.206;2023-03-01T00:52:33;0.20;99.90
13591;DHT22;6866;50.778;7.206;2023-03-01T00:54:59;0.20;99.90
13591;DHT22;6866;50.778;7.206;2023-03-01T00:57:24;0.20;99.90
13591;DHT22;6866;50.778;7.206;2023-03-01T00:59:51;0.30;99.90
13591;DHT22;6866;50.778;7.206;2023-03-01T01:02:18;0.30;99.90
13591;DHT22;6866;50.778;7.206;2023-03-01T01:04:45;0.30;99.90
13591;DHT22;6866;50.778;7.206;2023-03-01T01:07:11;0.30;99.90
13591;DHT22;6866;50.778;7.206;2023-03-01T01:09:36;0.50;99.90
13591;DHT22;6866;50.778;7.206;2023-03-01T01:12:02;0.40;99.90
13591;DHT22;6866;50.778;7.206;2023-03-01T01:14:28;0.20;99.90
13591;DHT22;6866;50.778;7.206;2023-03-01T01:16:53;0.20;99.90
13591;DHT22;6866;50.778;7.206;2023-03-01T01:19:19;0.30;99.90
13591;DHT22;6866;50.778;7.206;2023-03-01T01:21:45;0.10;99.90
13591;DHT22;6866;50.778;7.206;2023-03-01T01:24:11;0.00;99.90
13591;DHT22;6866;50.778;7.206;2023-03-01T01:26:37;-0.10;99.90
13591;DHT22;6866;50.778;7.206;2023-03-01T01:29:04;-0.20;99.90
13591;DHT22;6866;50.778;7.206;2023-03-01T01:31:31;-0.10;99.90
13591;DHT22;6866;50.778;7.206;2023-03-01T01:33:58;-0.30;99.90
13591;DHT22;6866;50.778;7.206;2023-03-01T01:36:24;0.00;99.90
13591;DHT22;6866;50.778;7.206;2023-03-01T01:38:50;0.10;99.90
13591;DHT22;6866;50.778;7.206;2023-03-01T01:41:16;0.00;99.90
13591;DHT22;6866;50.778;7.206;2023-03-01T01:43:44;-0.10;99.90
13591;DHT22;6866;50.778;7.206;2023-03-01T01:46:30;-0.20;99.90
13591;DHT22;6866;50.778;7.206;2023-03-01T01:51:41;-0.10;99.90
13591;DHT22;6866;50.778;7.206;2023-03-01T01:54:24;-0.50;99.90
13591;DHT22;6866;50.778;7.206;2023-03-01T01:57:00;-0.40;99.90
13591;DHT22;6866;50.778;7.206;2023-03-01T01:59:28;-0.50;99.90
13591;DHT22;6866;50.778;7.206;2023-03-01T02:04:32;-0.30;99.90
13591;DHT22;6866;50.778;7.206;2023-03-01T02:07:02;-0.20;99.90
13591;DHT22;6866;50.778;7.206;2023-03-01T02:09:30;-0.30;99.90
13591;DHT22;6866;50.778;7.206;2023-03-01T02:11:56;-0.40;99.90
13591;DHT22;6866;50.778;7.206;2023-03-01T02:14:22;-0.50;99.90
13591;DHT22;6866;50.778;7.206;2023-03-01T02:16:48;-0.40;99.90
13591;DHT22;6866;50.778;7.206;2023-03-01T02:19:43;-0.40;99.90
13591;DHT22;6866;50.778;7.206;2023-03-01T02:22:25;-0.50;99.90
13591;DHT22;6866;50.778;7.206;2023-03-01T02:30:34;-0.40;99.90
13591;DHT22;6866;50.778;7.206;2023-03-01T02:33:00;-0.40;99.90
13591;DHT22;6866;50.778;7.206;2023-03-01T02:35:32;-0.30;99.30
13591;DHT22;6866;50.778;7.206;2023-03-01T02:38:00;-0.50;99.60
13591;DHT22;6866;50.778;7.206;2023-03-01T02:40:30;-0.40;99.40
13591;DHT22;6866;50.778;7.206;2023-03-01T02:42:57;-0.70;99.20
13591;DHT22;6866;50.778;7.206;2023-03-01T02:45:24;-0.80;99.60
13591;DHT22;6866;50.778;7.206;2023-03-01T02:47:53;-0.90;99.90
13591;DHT22;6866;50.778;7.206;2023-03-01T02:51:02;-0.80;99.90
13591;DHT22;6866;50.778;7.206;2023-03-01T02:53:46;-1.00;99.90
13591;DHT22;6866;50.778;7.206;2023-03-01T02:56:15;-0.70;99.90
13591;DHT22;6866;50.778;7.206;2023-03-01T02:58:41;-0.70;99.90
13591;DHT22;6866;50.778;7.206;2023-03-01T03:01:11;-0.80;99.90
13591;DHT22;6866;50.778;7.206;2023-03-01T03:03:36;-1.30;99.90
13591;DHT22;6866;50.778;7.206;2023-03-01T03:06:02;-1.10;99.90
13591;DHT22;6866;50.778;7.206;2023-03-01T03:08:27;-0.80;99.90
13591;DHT22;6866;50.778;7.206;2023-03-01T03:10:53;-0.90;99.90
13591;DHT22;6866;50.778;7.206;2023-03-01T03:13:18;-0.60;99.90
13591;DHT22;6866;50.778;7.206;2023-03-01T03:15:44;-0.80;99.90
13591;DHT22;6866;50.778;7.206;2023-03-01T03:18:17;-0.80;99.90
13591;DHT22;6866;50.778;7.206;2023-03-01T03:20:44;-0.80;99.90
13591;DHT22;6866;50.778;7.206;2023-03-01T03:23:10;-0.70;99.90
13591;DHT22;6866;50.778;7.206;2023-03-01T03:25:36;-0.80;99.90
13591;DHT22;6866;50.778;7.206;2023-03-01T03:28:04;-0.70;99.90
13591;DHT22;6866;50.778;7.206;2023-03-01T03:30:35;-1.10;99.90
13591;DHT22;6866;50.778;7.206;2023-03-01T03:33:01;-1.20;99.90
13591;DHT22;6866;50.778;7.206;2023-03-01T03:35:32;-1.10;99.90
13591;DHT22;6866;50.778;7.206;2023-03-01T03:38:01;-1.30;99.90
13591;DHT22;6866;50.778;7.206;2023-03-01T03:40:34;-1.10;99.90
13591;DHT22;6866;50.778;7.206;2023-03-01T03:43:01;-1.10;99.90
13591;DHT22;6866;50.778;7.206;2023-03-01T03:45:26;-1.20;99.90
13591;DHT22;6866;50.778;7.206;2023-03-01T03:47:52;-0.80;99.90
13591;DHT22;6866;50.778;7.206;2023-03-01T03:50:18;-1.10;99.90
13591;DHT22;6866;50.778;7.206;2023-03-01T03:52:44;-0.80;99.90
13591;DHT22;6866;50.778;7.206;2023-03-01T03:55:11;-0.90;99.90
13591;DHT22;6866;50.778;7.206;2023-03-01T03:57:41;-1.10;99.90
13591;DHT22;6866;50.778;7.206;2023-03-01T04:00:10;-1.30;99.90
13591;DHT22;6866;50.778;7.206;2023-03-01T04:02:40;-0.80;99.90
13591;DHT22;6866;50.778;7.206;2023-03-01T04:05:06;-0.90;99.90
13591;DHT22;6866;50.778;7.206;2023-03-01T04:07:34;-1.00;99.90
13591;DHT22;6866;50.778;7.206;2023-03-01T04:09:59;-1.00;99.90
13591;DHT22;6866;50.778;7.206;2023-03-01T04:12:25;-0.90;99.90
13591;DHT22;6866;50.778;7.206;2023-03-01T04:14:50;-0.80;99.90
13591;DHT22;6866;50.778;7.206;2023-03-01T04:17:16;-0.80;99.90
13591;DHT22;6866;50.778;7.206;2023-03-01T04:19:41;-0.80;99.90
13591;DHT22;6866;50.778;7.206;2023-03-01T04:22:09;-1.10;99.90
13591;DHT22;6866;50.778;7.206;2023-03-01T04:24:36;-0.90;99.90
13591;DHT22;6866;50.778;7.206;2023-03-01T04:27:02;-1.00;99.90
13591;DHT22;6866;50.778;7.206;2023-03-01T04:29:28;-1.20;99.90
13591;DHT22;6866;50.778;7.206;2023-03-01T04:31:53;-1.30;99.90
13591;DHT22;6866;50.778;7.206;2023-03-01T04:34:19;-1.70;99.90
13591;DHT22;6866;50.778;7.206;2023-03-01T04:36:44;-1.50;99.90
13591;DHT22;6866;50.778;7.206;2023-03-01T04:39:10;-1.40;99.90
13591;DHT22;6866;50.778;7.206;2023-03-01T04:41:39;-1.50;99.90
13591;DHT22;6866;50.778;7.206;2023-03-01T04:44:06;-1.40;99.90
13591;DHT22;6866;50.778;7.206;2023-03-01T04:46:31;-1.30;99.90
13591;DHT22;6866;50.778;7.206;2023-03-01T04:48:57;-1.50;99.90
13591;DHT22;6866;50.778;7.206;2023-03-01T04:51:23;-1.30;99.90
13591;DHT22;6866;50.778;7.206;2023-03-01T04:53:49;-1.20;99.90
13591;DHT22;6866;50.778;7.206;2023-03-01T04:56:15;-1.30;99.90
13591;DHT22;6866;50.778;7.206;2023-03-01T04:58:43;-1.10;99.90
13591;DHT22;6866;50.778;7.206;2023-03-01T05:01:19;-1.30;99.90
13591;DHT22;6866;50.778;7.206;2023-03-01T05:03:50;-1.20;99.90
13591;DHT22;6866;50.778;7.206;2023-03-01T05:06:17;-1.30;99.90
13591;DHT22;6866;50.778;7.206;2023-03-01T05:08:43;-1.30;99.90
13591;DHT22;6866;50.778;7.206;2023-03-01T05:11:09;-1.10;99.90
13591;DHT22;6866;50.778;7.206;2023-03-01T05:13:36;-1.30;99.90
13591;DHT22;6866;50.778;7.206;2023-03-01T05:16:03;-1.20;99.90
13591;DHT22;6866;50.778;7.206;2023-03-01T05:18:31;-1.20;99.90
13591;DHT22;6866;50.778;7.206;2023-03-01T05:21:05;-1.40;99.90
13591;DHT22;6866;50.778;7.206;2023-03-01T05:23:32;-1.10;99.90
13591;DHT22;6866;50.778;7.206;2023-03-01T05:25:59;-1.30;99.90
13591;DHT22;6866;50.778;7.206;2023-03-01T05:28:25;-1.20;99.90
13591;DHT22;6866;50.778;7.206;2023-03-01T05:30:51;-1.40;99.90
13591;DHT22;6866;50.778;7.206;2023-03-01T05:33:17;-1.40;99.90
13591;DHT22;6866;50.778;7.206;2023-03-01T05:35:44;-1.60;99.90
13591;DHT22;6866;50.778;7.206;2023-03-01T05:38:12;-1.40;99.90
13591;DHT22;6866;50.778;7.206;2023-03-01T05:40:39;-1.40;99.90
13591;DHT22;6866;50.778;7.206;2023-03-01T05:43:05;-1.60;99.90
13591;DHT22;6866;50.778;7.206;2023-03-01T05:45:31;-1.40;99.90
13591;DHT22;6866;50.778;7.206;2023-03-01T05:47:58;-1.40;99.90
13591;DHT22;6866;50.778;7.206;2023-03-01T05:50:26;-1.40;99.90
13591;DHT22;6866;50.778;7.206;2023-03-01T05:53:00;-1.60;99.90
13591;DHT22;6866;50.778;7.206;2023-03-01T05:55:27;-1.60;99.90
13591;DHT22;6866;50.778;7.206;2023-03-01T05:57:52;-1.70;99.90
13591;DHT22;6866;50.778;7.206;2023-03-01T06:00:20;-1.40;99.90
13591;DHT22;6866;50.778;7.206;2023-03-01T06:02:47;-1.60;99.90
13591;DHT22;6866;50.778;7.206;2023-03-01T06:05:13;-1.50;99.90
13591;DHT22;6866;50.778;7.206;2023-03-01T06:07:40;-1.30;99.90
13591;DHT22;6866;50.778;7.206;2023-03-01T06:10:07;-1.50;99.90
13591;DHT22;6866;50.778;7.206;2023-03-01T06:12:35;-1.40;99.90
13591;DHT22;6866;50.778;7.206;2023-03-01T06:15:01;-1.40;99.90
13591;DHT22;6866;50.778;7.206;2023-03-01T06:17:32;-1.60;99.90
13591;DHT22;6866;50.778;7.206;2023-03-01T06:19:57;-1.50;99.90
13591;DHT22;6866;50.778;7.206;2023-03-01T06:22:23;-1.40;99.90
13591;DHT22;6866;50.778;7.206;2023-03-01T06:24:49;-1.70;99.90
13591;DHT22;6866;50.778;7.206;2023-03-01T06:27:15;-1.60;99.90
13591;DHT22;6866;50.778;7.206;2023-03-01T06:29:41;-1.70;99.90
13591;DHT22;6866;50.778;7.206;2023-03-01T06:32:07;-1.50;99.90
13591;DHT22;6866;50.778;7.206;2023-03-01T06:34:33;-1.70;99.90
13591;DHT22;6866;50.778;7.206;2023-03-01T06:36:59;-1.60;99.90
13591;DHT22;6866;50.778;7.206;2023-03-01T06:39:24;-1.70;99.90
13591;DHT22;6866;50.778;7.206;2023-03-01T06:41:50;-1.60;99.90
13591;DHT22;6866;50.778;7.206;2023-03-01T06:44:16;-1.70;99.90
13591;DHT22;6866;50.778;7.206;2023-03-01T06:46:42;-1.30;99.90
13591;DHT22;6866;50.778;7.206;2023-03-01T06:49:07;-1.00;99.90
13591;DHT22;6866;50.778;7.206;2023-03-01T06:51:36;-0.90;99.90
13591;DHT22;6866;50.778;7.206;2023-03-01T06:54:05;-0.90;99.90
13591;DHT22;6866;50.778;7.206;2023-03-01T06:56:31;-1.30;99.90
13591;DHT22;6866;50.778;7.206;2023-03-01T06:58:57;-1.20;99.90
13591;DHT22;6866;50.778;7.206;2023-03-01T07:01:22;-1.20;99.90
13591;DHT22;6866;50.778;7.206;2023-03-01T07:03:48;0.70;95.10
13591;DHT22;6866;50.778;7.206;2023-03-01T07:06:13;3.90;77.60
13591;DHT22;6866;50.778;7.206;2023-03-01T07:08:39;5.70;61.20
13591;DHT22;6866;50.778;7.206;2023-03-01T07:11:05;7.10;54.00
13591;DHT22;6866;50.778;7.206;2023-03-01T07:13:31;7.70;50.20
13591;DHT22;6866;50.778;7.206;2023-03-01T07:15:57;7.00;50.80
13591;DHT22;6866;50.778;7.206;2023-03-01T07:18:22;6.20;51.80
13591;DHT22;6866;50.778;7.206;2023-03-01T07:20:48;6.20;53.10
13591;DHT22;6866;50.778;7.206;2023-03-01T07:23:13;6.90;51.70
13591;DHT22;6866;50.778;7.206;2023-03-01T07:25:39;6.00;50.80
13591;DHT22;6866;50.778;7.206;2023-03-01T07:28:04;7.70;52.80
13591;DHT22;6866;50.778;7.206;2023-03-01T07:30:30;8.60;47.40
13591;DHT22;6866;50.778;7.206;2023-03-01T07:32:57;9.50;46.30
13591;DHT22;6866;50.778;7.206;2023-03-01T07:35:23;9.70;44.00
13591;DHT22;6866;50.778;7.206;2023-03-01T07:37:49;9.60;49.40
13591;DHT22;6866;50.778;7.206;2023-03-01T07:40:15;10.00;43.30
13591;DHT22;6866;50.778;7.206;2023-03-01T07:42:41;10.30;42.00
13591;DHT22;6866;50.778;7.206;2023-03-01T07:45:07;10.40;42.40
13591;DHT22;6866;50.778;7.206;2023-03-01T07:47:33;9.60;43.00
13591;DHT22;6866;50.778;7.206;2023-03-01T07:49:58;9.90;44.20
13591;DHT22;6866;50.778;7.206;2023-03-01T07:52:24;10.80;41.80
13591;DHT22;6866;50.778;7.206;2023-03-01T07:54:49;11.30;42.20
13591;DHT22;6866;50.778;7.206;2023-03-01T07:57:15;11.90;39.50
13591;DHT22;6866;50.778;7.206;2023-03-01T07:59:40;11.80;48.30
13591;DHT22;6866;50.778;7.206;2023-03-01T08:02:06;11.80;43.30
13591;DHT22;6866;50.778;7.206;2023-03-01T08:04:32;11.60;46.60
13591;DHT22;6866;50.778;7.206;2023-03-01T08:06:58;11.30;45.70
13591;DHT22;6866;50.778;7.206;2023-03-01T08:09:24;11.70;47.30
13591;DHT22;6866;50.778;7.206;2023-03-01T08:14:15;12.10;38.30
13591;DHT22;6866;50.778;7.206;2023-03-01T08:16:41;12.20;39.30
13591;DHT22;6866;50.778;7.206;2023-03-01T08:19:09;12.60;38.40
13591;DHT22;6866;50.778;7.206;2023-03-01T08:21:35;11.70;38.20
13591;DHT22;6866;50.778;7.206;2023-03-01T08:24:05;10.60;40.90
13591;DHT22;6866;50.778;7.206;2023-03-01T08:26:31;9.30;42.20
13591;DHT22;6866;50.778;7.206;2023-03-01T08:28:57;9.50;43.70
13591;DHT22;6866;50.778;7.206;2023-03-01T08:31:24;8.90;45.60
13591;DHT22;6866;50.778;7.206;2023-03-01T08:33:52;8.50;47.40
13591;DHT22;6866;50.778;7.206;2023-03-01T08:36:22;8.80;46.60
13591;DHT22;6866;50.778;7.206;2023-03-01T08:38:48;10.60;44.20
13591;DHT22;6866;50.778;7.206;2023-03-01T08:41:14;11.30;41.20
13591;DHT22;6866;50.778;7.206;2023-03-01T08:43:40;11.50;40.70
13591;DHT22;6866;50.778;7.206;2023-03-01T08:46:05;11.00;40.00
13591;DHT22;6866;50.778;7.206;2023-03-01T08:48:31;11.70;41.10
13591;DHT22;6866;50.778;7.206;2023-03-01T08:50:56;12.70;38.10
13591;DHT22;6866;50.778;7.206;2023-03-01T08:53:22;12.40;38.10
13591;DHT22;6866;50.778;7.206;2023-03-01T08:55:48;12.20;39.00
13591;DHT22;6866;50.778;7.206;2023-03-01T08:58:13;12.30;39.60
13591;DHT22;6866;50.778;7.206;2023-03-01T09:00:40;13.80;36.40
13591;DHT22;6866;50.778;7.206;2023-03-01T09:03:05;12.00;39.10
13591;DHT22;6866;50.778;7.206;2023-03-01T09:05:32;11.50;38.90
13591;DHT22;6866;50.778;7.206;2023-03-01T09:07:58;11.70;39.00
13591;DHT22;6866;50.778;7.206;2023-03-01T09:10:24;12.80;38.60
13591;DHT22;6866;50.778;7.206;2023-03-01T09:12:50;12.80;38.70
13591;DHT22;6866;50.778;7.206;2023-03-01T09:15:16;13.30;37.60
13591;DHT22;6866;50.778;7.206;2023-03-01T09:17:41;11.90;37.30
13591;DHT22;6866;50.778;7.206;2023-03-01T09:20:07;11.80;38.50
13591;DHT22;6866;50.778;7.206;2023-03-01T09:22:33;11.50;38.70
13591;DHT22;6866;50.778;7.206;2023-03-01T09:25:00;12.50;38.90
13591;DHT22;6866;50.778;7.206;2023-03-01T09:27:26;11.90;36.60
13591;DHT22;6866;50.778;7.206;2023-03-01T09:29:51;12.20;39.00
13591;DHT22;6866;50.778;7.206;2023-03-01T09:32:17;11.40;38.50
13591;DHT22;6866;50.778;7.206;2023-03-01T09:34:42;11.00;39.80
13591;DHT22;6866;50.778;7.206;2023-03-01T09:37:27;11.00;40.00
13591;DHT22;6866;50.778;7.206;2023-03-01T09:39:53;10.10;40.40
13591;DHT22;6866;50.778;7.206;2023-03-01T09:42:18;10.80;41.90
13591;DHT22;6866;50.778;7.206;2023-03-01T09:44:55;11.70;39.30
13591;DHT22;6866;50.778;7.206;2023-03-01T09:47:26;12.50;37.70
13591;DHT22;6866;50.778;7.206;2023-03-01T09:55:08;12.90;36.50
13591;DHT22;6866;50.778;7.206;2023-03-01T10:00:46;11.30;38.10
13591;DHT22;6866;50.778;7.206;2023-03-01T10:03:36;10.70;38.80
13591;DHT22;6866;50.778;7.206;2023-03-01T10:06:15;10.20;40.50
13591;DHT22;6866;50.778;7.206;2023-03-01T10:08:50;11.40;39.50
13591;DHT22;6866;50.778;7.206;2023-03-01T10:11:20;11.30;38.40
13591;DHT22;6866;50.778;7.206;2023-03-01T10:19:43;11.00;38.40
13591;DHT22;6866;50.778;7.206;2023-03-01T10:24:39;10.20;40.60
13591;DHT22;6866;50.778;7.206;2023-03-01T10:27:25;9.70;40.90
13591;DHT22;6866;50.778;7.206;2023-03-01T10:32:28;9.50;42.50
13591;DHT22;6866;50.778;7.206;2023-03-01T10:34:54;9.50;42.00
13591;DHT22;6866;50.778;7.206;2023-03-01T10:37:21;9.20;42.40
13591;DHT22;6866;50.778;7.206;2023-03-01T10:42:27;8.80;42.70
13591;DHT22;6866;50.778;7.206;2023-03-01T10:44:53;8.40;43.30
13591;DHT22;6866;50.778;7.206;2023-03-01T10:47:26;9.10;43.90
13591;DHT22;6866;50.778;7.206;2023-03-01T10:49:57;9.60;43.00
13591;DHT22;6866;50.778;7.206;2023-03-01T10:52:29;9.10;43.40
13591;DHT22;6866;50.778;7.206;2023-03-01T10:55:23;9.70;43.00
13591;DHT22;6866;50.778;7.206;2023-03-01T10:57:46;9.50;42.20
13591;DHT22;6866;50.778;7.206;2023-03-01T11:00:20;9.40;43.00
13591;DHT22;6866;50.778;7.206;2023-03-01T11:05:26;9.10;43.80
13591;DHT22;6866;50.778;7.206;2023-03-01T11:07:55;9.00;43.50
13591;DHT22;6866;50.778;7.206;2023-03-01T11:10:33;8.90;43.20
13591;DHT22;6866;50.778;7.206;2023-03-01T11:13:17;9.00;43.00
13591;DHT22;6866;50.778;7.206;2023-03-01T11:15:43;9.10;43.40
13591;DHT22;6866;50.778;7.206;2023-03-01T11:18:23;9.60;42.50
13591;DHT22;6866;50.778;7.206;2023-03-01T11:20:51;9.30;41.90
13591;DHT22;6866;50.778;7.206;2023-03-01T11:23:18;8.70;44.10
13591;DHT22;6866;50.778;7.206;2023-03-01T11:25:59;9.20;43.00
13591;DHT22;6866;50.778;7.206;2023-03-01T11:28:27;9.10;41.10
13591;DHT22;6866;50.778;7.206;2023-03-01T11:36:41;9.20;41.70
13591;DHT22;6866;50.778;7.206;2023-03-01T11:39:31;9.40;41.60
13591;DHT22;6866;50.778;7.206;2023-03-01T11:42:18;9.60;41.50
13591;DHT22;6866;50.778;7.206;2023-03-01T11:44:48;9.10;41.90
13591;DHT22;6866;50.778;7.206;2023-03-01T11:47:42;9.20;42.00
13591;DHT22;6866;50.778;7.206;2023-03-01T11:50:35;9.40;41.00
13591;DHT22;6866;50.778;7.206;2023-03-01T11:58:54;9.20;41.70
13591;DHT22;6866;50.778;7.206;2023-03-01T12:10:13;9.70;39.60
13591;DHT22;6866;50.778;7.206;2023-03-01T12:15:58;9.60;39.60
13591;DHT22;6866;50.778;7.206;2023-03-01T12:29:57;9.40;39.10
13591;DHT22;6866;50.778;7.206;2023-03-01T12:35:19;9.40;37.60
13591;DHT22;6866;50.778;7.206;2023-03-01T12:40:55;9.70;37.80
13591;DHT22;6866;50.778;7.206;2023-03-01T12:43:41;9.90;38.20
13591;DHT22;6866;50.778;7.206;2023-03-01T12:51:30;10.00;38.10
13591;DHT22;6866;50.778;7.206;2023-03-01T12:53:59;9.90;38.10
13591;DHT22;6866;50.778;7.206;2023-03-01T12:56:29;10.10;37.80
13591;DHT22;6866;50.778;7.206;2023-03-01T13:04:33;10.10;37.60
13591;DHT22;6866;50.778;7.206;2023-03-01T13:12:49;10.20;36.50
13591;DHT22;6866;50.778;7.206;2023-03-01T13:15:36;9.90;37.90
13591;DHT22;6866;50.778;7.206;2023-03-01T13:23:25;10.00;36.50
13591;DHT22;6866;50.778;7.206;2023-03-01T13:26:13;10.10;36.30
13591;DHT22;6866;50.778;7.206;2023-03-01T13:28:44;10.10;36.90
13591;DHT22;6866;50.778;7.206;2023-03-01T13:46:51;10.10;35.50
13591;DHT22;6866;50.778;7.206;2023-03-01T13:49:20;10.10;35.40
13591;DHT22;6866;50.778;7.206;2023-03-01T13:51:48;10.10;33.60
13591;DHT22;6866;50.778;7.206;2023-03-01T13:54:16;10.20;34.80
13591;DHT22;6866;50.778;7.206;2023-03-01T13:56:44;10.30;34.10
13591;DHT22;6866;50.778;7.206;2023-03-01T13:59:21;10.20;34.00
13591;DHT22;6866;50.778;7.206;2023-03-01T14:01:58;10.30;33.60
13591;DHT22;6866;50.778;7.206;2023-03-01T14:04:31;10.10;33.60
13591;DHT22;6866;50.778;7.206;2023-03-01T14:07:16;10.20;34.40
13591;DHT22;6866;50.778;7.206;2023-03-01T14:09:45;10.20;33.80
13591;DHT22;6866;50.778;7.206;2023-03-01T14:15:34;10.10;34.60
13591;DHT22;6866;50.778;7.206;2023-03-01T14:20:43;10.30;33.80
13591;DHT22;6866;50.778;7.206;2023-03-01T14:23:21;10.30;33.80
13591;DHT22;6866;50.778;7.206;2023-03-01T14:25:49;10.40;34.10
13591;DHT22;6866;50.778;7.206;2023-03-01T14:28:26;10.40;33.90
13591;DHT22;6866;50.778;7.206;2023-03-01T14:30:54;10.20;33.30
13591;DHT22;6866;50.778;7.206;2023-03-01T14:33:26;10.30;34.10
13591;DHT22;6866;50.778;7.206;2023-03-01T14:38:27;10.40;34.60
13591;DHT22;6866;50.778;7.206;2023-03-01T14:40:57;10.30;35.20
13591;DHT22;6866;50.778;7.206;2023-03-01T14:43:23;10.30;35.20
13591;DHT22;6866;50.778;7.206;2023-03-01T14:45:51;10.30;35.30
13591;DHT22;6866;50.778;7.206;2023-03-01T14:48:17;10.50;35.70
13591;DHT22;6866;50.778;7.206;2023-03-01T14:50:45;10.40;34.80
13591;DHT22;6866;50.778;7.206;2023-03-01T14:53:26;10.30;35.00
13591;DHT22;6866;50.778;7.206;2023-03-01T14:55:55;10.20;34.50
13591;DHT22;6866;50.778;7.206;2023-03-01T14:58:25;10.30;35.10
13591;DHT22;6866;50.778;7.206;2023-03-01T15:00:59;10.30;35.00
13591;DHT22;6866;50.778;7.206;2023-03-01T15:03:46;10.30;35.10
13591;DHT22;6866;50.778;7.206;2023-03-01T15:06:17;10.30;35.20
13591;DHT22;6866;50.778;7.206;2023-03-01T15:08:47;10.30;35.50
13591;DHT22;6866;50.778;7.206;2023-03-01T15:11:23;10.30;35.60
13591;DHT22;6866;50.778;7.206;2023-03-01T15:13:51;10.30;35.20
13591;DHT22;6866;50.778;7.206;2023-03-01T15:16:26;10.30;34.60
13591;DHT22;6866;50.778;7.206;2023-03-01T15:18:57;10.30;35.10
13591;DHT22;6866;50.778;7.206;2023-03-01T15:21:25;10.30;35.00
13591;DHT22;6866;50.778;7.206;2023-03-01T15:24:17;10.30;35.40
13591;DHT22;6866;50.778;7.206;2023-03-01T15:26:55;10.30;35.40
13591;DHT22;6866;50.778;7.206;2023-03-01T15:29:25;10.20;35.40
13591;DHT22;6866;50.778;7.206;2023-03-01T15:32:00;10.10;34.90
13591;DHT22;6866;50.778;7.206;2023-03-01T15:34:32;10.10;35.10
13591;DHT22;6866;50.778;7.206;2023-03-01T15:37:01;10.10;35.50
13591;DHT22;6866;50.778;7.206;2023-03-01T15:39:35;10.20;35.70
13591;DHT22;6866;50.778;7.206;2023-03-01T15:44:40;10.10;35.20
13591;DHT22;6866;50.778;7.206;2023-03-01T15:47:39;10.00;34.90
13591;DHT22;6866;50.778;7.206;2023-03-01T15:50:16;10.00;35.20
13591;DHT22;6866;50.778;7.206;2023-03-01T15:52:42;9.90;35.20
13591;DHT22;6866;50.778;7.206;2023-03-01T15:55:26;9.90;35.30
13591;DHT22;6866;50.778;7.206;2023-03-01T15:58:08;9.90;34.90
13591;DHT22;6866;50.778;7.206;2023-03-01T16:00:35;9.80;35.20
13591;DHT22;6866;50.778;7.206;2023-03-01T16:03:00;9.80;35.90
13591;DHT22;6866;50.778;7.206;2023-03-01T16:05:31;9.80;36.60
13591;DHT22;6866;50.778;7.206;2023-03-01T16:07:57;9.80;37.80
13591;DHT22;6866;50.778;7.206;2023-03-01T16:10:24;9.70;39.70
13591;DHT22;6866;50.778;7.206;2023-03-01T16:12:50;9.60;40.70
13591;DHT22;6866;50.778;7.206;2023-03-01T16:17:47;9.40;41.80
13591;DHT22;6866;50.778;7.206;2023-03-01T16:20:14;9.40;41.90
13591;DHT22;6866;50.778;7.206;2023-03-01T16:22:43;9.40;42.00
13591;DHT22;6866;50.778;7.206;2023-03-01T16:25:14;9.30;42.30
13591;DHT22;6866;50.778;7.206;2023-03-01T16:27:48;9.30;42.40
13591;DHT22;6866;50.778;7.206;2023-03-01T16:30:16;9.30;42.60
13591;DHT22;6866;50.778;7.206;2023-03-01T16:32:43;9.20;43.20
13591;DHT22;6866;50.778;7.206;2023-03-01T16:35:11;9.20;42.10
13591;DHT22;6866;50.778;7.206;2023-03-01T16:37:37;9.20;41.30
13591;DHT22;6866;50.778;7.206;2023-03-01T16:40:05;9.10;41.00
13591;DHT22;6866;50.778;7.206;2023-03-01T16:42:34;9.10;41.10
13591;DHT22;6866;50.778;7.206;2023-03-01T16:45:00;9.00;41.00
13591;DHT22;6866;50.778;7.206;2023-03-01T16:47:27;9.00;41.40
13591;DHT22;6866;50.778;7.206;2023-03-01T16:49:53;8.90;41.90
13591;DHT22;6866;50.778;7.206;2023-03-01T16:52:19;8.80;43.60
13591;DHT22;6866;50.778;7.206;2023-03-01T16:54:45;8.70;45.00
13591;DHT22;6866;50.778;7.206;2023-03-01T16:57:10;8.50;45.10
13591;DHT22;6866;50.778;7.206;2023-03-01T16:59:36;8.50;45.30
13591;DHT22;6866;50.778;7.206;2023-03-01T17:02:03;8.30;47.30
13591;DHT22;6866;50.778;7.206;2023-03-01T17:04:29;8.30;47.40
13591;DHT22;6866;50.778;7.206;2023-03-01T17:06:55;8.20;46.70
13591;DHT22;6866;50.778;7.206;2023-03-01T17:09:20;8.10;47.20
13591;DHT22;6866;50.778;7.206;2023-03-01T17:11:50;8.20;46.90
13591;DHT22;6866;50.778;7.206;2023-03-01T17:14:16;8.20;46.70
13591;DHT22;6866;50.778;7.206;2023-03-01T17:16:42;8.10;47.00
13591;DHT22;6866;50.778;7.206;2023-03-01T17:19:08;8.00;46.70
13591;DHT22;6866;50.778;7.206;2023-03-01T17:21:34;8.00;46.70
13591;DHT22;6866;50.778;7.206;2023-03-01T17:24:00;8.00;46.60
13591;DHT22;6866;50.778;7.206;2023-03-01T17:26:25;7.90;46.90
13591;DHT22;6866;50.778;7.206;2023-03-01T17:28:51;7.90;43.70
13591;DHT22;6866;50.778;7.206;2023-03-01T17:31:18;7.90;42.80
13591;DHT22;6866;50.778;7.206;2023-03-01T17:33:44;7.80;42.70
13591;DHT22;6866;50.778;7.206;2023-03-01T17:36:09;7.80;42.00
13591;DHT22;6866;50.778;7.206;2023-03-01T17:38:35;7.70;41.20
13591;DHT22;6866;50.778;7.206;2023-03-01T17:41:02;7.70;41.10
13591;DHT22;6866;50.778;7.206;2023-03-01T17:43:28;7.60;41.40
13591;DHT22;6866;50.778;7.206;2023-03-01T17:45:54;7.60;41.20
13591;DHT22;6866;50.778;7.206;2023-03-01T17:48:20;7.60;40.60
13591;DHT22;6866;50.778;7.206;2023-03-01T17:50:46;7.50;40.60
13591;DHT22;6866;50.778;7.206;2023-03-01T17:53:11;7.50;41.70
13591;DHT22;6866;50.778;7.206;2023-03-01T17:55:39;7.40;41.10
13591;DHT22;6866;50.778;7.206;2023-03-01T17:58:06;7.40;41.20
13591;DHT22;6866;50.778;7.206;2023-03-01T18:00:33;7.40;41.20
13591;DHT22;6866;50.778;7.206;2023-03-01T18:02:59;7.30;41.10
13591;DHT22;6866;50.778;7.206;2023-03-01T18:05:25;7.30;44.80
13591;DHT22;6866;50.778;7.206;2023-03-01T18:07:52;7.30;43.20
13591;DHT22;6866;50.778;7.206;2023-03-01T18:10:18;7.20;42.30
13591;DHT22;6866;50.778;7.206;2023-03-01T18:12:44;7.20;42.40